createdAt,value
2023-04-30T00:00:35.743Z,6.33
2023-04-30T00:01:37.203Z,6.26
2023-04-30T00:02:39.433Z,6.16
2023-04-30T00:03:41.022Z,6.03
2023-04-30T00:04:42.520Z,6.21
2023-04-30T00:05:43.901Z,6.16
2023-04-30T00:06:45.494Z,6.17
2023-04-30T00:07:46.965Z,6.05
2023-04-30T00:08:48.401Z,6.11
2023-04-30T00:09:51.256Z,6.04
2023-04-30T00:10:52.835Z,6.00
2023-04-30T00:11:54.339Z,6.02
2023-04-30T00:12:57.013Z,5.95
2023-04-30T00:13:58.428Z,5.89
2023-04-30T00:15:00.495Z,5.92
2023-04-30T00:16:02.009Z,5.86
2023-04-30T00:17:03.514Z,5.88
2023-04-30T00:18:06.923Z,6.17
2023-04-30T00:19:08.452Z,5.97
2023-04-30T00:20:10.666Z,6.05
2023-04-30T00:21:12.063Z,6.19
2023-04-30T00:22:13.458Z,6.05
2023-04-30T00:23:14.927Z,6.05
2023-04-30T00:24:16.353Z,5.93
2023-04-30T00:25:17.803Z,5.84
2023-04-30T00:26:19.252Z,5.79
2023-04-30T00:27:21.207Z,5.83
2023-04-30T00:28:22.740Z,6.10
2023-04-30T00:29:24.149Z,6.19
2023-04-30T00:30:25.674Z,6.19
2023-04-30T00:31:27.064Z,6.14
2023-04-30T00:32:28.524Z,6.17
2023-04-30T00:33:29.969Z,6.17
2023-04-30T00:34:31.424Z,6.22
2023-04-30T00:35:32.896Z,6.25
2023-04-30T00:36:34.561Z,6.22
2023-04-30T00:37:35.995Z,6.11
2023-04-30T00:38:37.481Z,6.14
2023-04-30T00:39:39.031Z,6.29
2023-04-30T00:40:42.282Z,6.27
2023-04-30T00:41:43.959Z,6.28
2023-04-30T00:42:45.412Z,6.18
2023-04-30T00:43:47.177Z,6.16
2023-04-30T00:44:48.664Z,6.04
2023-04-30T00:45:50.230Z,6.06
2023-04-30T00:46:51.703Z,5.95
2023-04-30T00:47:53.245Z,6.03
2023-04-30T00:48:54.777Z,5.89
2023-04-30T00:49:56.416Z,5.81
2023-04-30T00:50:58.055Z,5.70
2023-04-30T00:51:59.528Z,5.78
2023-04-30T00:53:01.376Z,5.69
2023-04-30T00:54:03.478Z,5.55
2023-04-30T00:55:05.400Z,5.52
2023-04-30T00:56:09.170Z,5.50
2023-04-30T00:57:13.713Z,5.43
2023-04-30T00:58:15.893Z,5.39
2023-04-30T00:59:17.619Z,5.28
2023-04-30T01:00:19.467Z,5.26
2023-04-30T01:01:21.167Z,5.40
2023-04-30T01:02:23.159Z,5.35
2023-04-30T01:03:24.837Z,5.22
2023-04-30T01:04:27.084Z,5.38
2023-04-30T01:05:28.482Z,5.39
2023-04-30T01:06:30.093Z,5.32
2023-04-30T01:07:32.255Z,5.25
2023-04-30T01:08:33.927Z,5.23
2023-04-30T01:09:35.851Z,5.13
2023-04-30T01:10:45.979Z,4.96
2023-04-30T01:11:52.688Z,4.89
2023-04-30T01:13:06.482Z,4.74
2023-04-30T01:14:13.400Z,4.61
2023-04-30T01:16:00.364Z,4.48
2023-04-30T01:17:27.790Z,4.47
2023-04-30T01:18:39.750Z,4.39
2023-04-30T01:19:44.233Z,4.29
2023-04-30T01:21:09.098Z,4.26
2023-04-30T01:22:35.334Z,4.26
2023-04-30T01:24:06.747Z,4.24
2023-04-30T01:25:32.514Z,4.17
2023-04-30T01:26:58.151Z,4.21
2023-04-30T01:28:16.999Z,4.29
2023-04-30T01:29:20.549Z,4.21
2023-04-30T01:30:23.963Z,4.20
2023-04-30T01:31:28.504Z,4.18
2023-04-30T01:32:29.957Z,4.16
2023-04-30T01:33:31.454Z,4.20
2023-04-30T01:34:32.850Z,4.28
2023-04-30T01:36:05.749Z,4.23
2023-04-30T01:37:43.514Z,4.24
2023-04-30T01:38:50.828Z,4.41
2023-04-30T01:40:08.572Z,4.45
2023-04-30T01:41:22.949Z,4.56
2023-04-30T01:42:45.729Z,4.61
2023-04-30T01:43:58.891Z,4.55
2023-04-30T01:45:15.497Z,4.44
2023-04-30T01:46:28.631Z,4.34
2023-04-30T01:47:38.369Z,4.32
2023-04-30T01:49:04.083Z,4.48
2023-04-30T01:50:26.060Z,4.35
2023-04-30T01:51:45.788Z,4.38
2023-04-30T01:52:50.282Z,4.60
2023-04-30T01:53:57.946Z,4.67
2023-04-30T01:55:14.838Z,4.49
2023-04-30T01:56:27.167Z,4.41
2023-04-30T01:57:39.550Z,4.34
2023-04-30T01:58:41.553Z,4.27
2023-04-30T01:59:43.385Z,4.22
2023-04-30T02:00:44.777Z,4.18
2023-04-30T02:01:46.974Z,4.12
2023-04-30T02:02:48.460Z,4.07
2023-04-30T02:03:50.263Z,3.97
2023-04-30T02:04:52.094Z,3.92
2023-04-30T02:05:53.614Z,4.00
2023-04-30T02:06:55.130Z,3.98
2023-04-30T02:07:56.584Z,3.99
2023-04-30T02:09:03.101Z,4.00
2023-04-30T02:10:06.469Z,4.06
2023-04-30T02:11:07.934Z,3.99
2023-04-30T02:12:09.347Z,3.88
2023-04-30T02:13:10.845Z,3.85
2023-04-30T02:14:12.267Z,3.93
2023-04-30T02:15:13.708Z,4.23
2023-04-30T02:16:15.179Z,4.07
2023-04-30T02:17:16.644Z,3.97
2023-04-30T02:18:18.213Z,3.89
2023-04-30T02:19:19.666Z,3.81
2023-04-30T02:20:21.316Z,3.77
2023-04-30T02:21:22.823Z,3.84
2023-04-30T02:22:24.212Z,3.76
2023-04-30T02:23:25.779Z,3.71
2023-04-30T02:24:27.215Z,3.66
2023-04-30T02:25:28.802Z,3.65
2023-04-30T02:26:30.256Z,3.65
2023-04-30T02:27:33.144Z,3.67
2023-04-30T02:28:34.614Z,3.97
2023-04-30T02:29:36.082Z,3.95
2023-04-30T02:30:37.460Z,3.95
2023-04-30T02:31:38.921Z,3.79
2023-04-30T02:32:40.533Z,3.80
2023-04-30T02:33:41.976Z,3.81
2023-04-30T02:34:43.551Z,3.65
2023-04-30T02:35:46.928Z,3.61
2023-04-30T02:36:48.367Z,3.55
2023-04-30T02:37:49.776Z,3.51
2023-04-30T02:38:51.170Z,3.41
2023-04-30T02:39:54.685Z,3.35
2023-04-30T02:40:56.450Z,3.26
2023-04-30T02:41:57.883Z,3.24
2023-04-30T02:43:01.186Z,3.19
2023-04-30T02:44:03.270Z,3.18
2023-04-30T02:45:04.750Z,3.09
2023-04-30T02:46:06.545Z,3.05
2023-04-30T02:47:08.077Z,3.03
2023-04-30T02:48:09.536Z,2.97
2023-04-30T02:49:10.956Z,3.03
2023-04-30T02:50:12.372Z,2.94
2023-04-30T02:51:13.777Z,2.92
2023-04-30T02:52:15.188Z,2.88
2023-04-30T02:53:16.628Z,2.82
2023-04-30T02:54:18.125Z,2.82
2023-04-30T02:55:19.666Z,2.90
2023-04-30T02:56:21.347Z,2.83
2023-04-30T02:57:22.772Z,2.89
2023-04-30T02:58:24.157Z,2.85
2023-04-30T02:59:25.923Z,2.79
2023-04-30T03:00:27.535Z,2.80
2023-04-30T03:01:28.970Z,2.80
2023-04-30T03:02:30.450Z,2.76
2023-04-30T03:03:32.133Z,2.76
2023-04-30T03:04:33.571Z,2.67
2023-04-30T03:05:34.984Z,2.79
2023-04-30T03:06:36.512Z,2.75
2023-04-30T03:07:38.039Z,2.76
2023-04-30T03:08:39.457Z,2.77
2023-04-30T03:09:41.535Z,2.78
2023-04-30T03:10:42.833Z,2.87
2023-04-30T03:11:44.232Z,2.89
2023-04-30T03:12:45.729Z,2.87
2023-04-30T03:13:51.596Z,2.83
2023-04-30T03:14:53.243Z,2.89
2023-04-30T03:15:59.633Z,2.79
2023-04-30T03:17:01.076Z,2.83
2023-04-30T03:18:02.545Z,2.79
2023-04-30T03:19:03.931Z,2.80
2023-04-30T03:20:05.959Z,3.25
2023-04-30T03:21:07.406Z,3.24
2023-04-30T03:22:08.818Z,3.24
2023-04-30T03:23:10.226Z,3.26
2023-04-30T03:24:11.650Z,3.15
2023-04-30T03:25:13.094Z,3.12
2023-04-30T03:26:14.534Z,3.07
2023-04-30T03:27:16.961Z,3.07
2023-04-30T03:28:18.474Z,3.03
2023-04-30T03:29:19.895Z,2.92
2023-04-30T03:30:21.407Z,2.98
2023-04-30T03:31:22.983Z,3.00
2023-04-30T03:32:24.555Z,3.12
2023-04-30T03:33:26.332Z,3.20
2023-04-30T03:34:27.810Z,3.39
2023-04-30T03:35:29.237Z,3.26
2023-04-30T03:36:31.267Z,3.30
2023-04-30T03:37:32.660Z,3.21
2023-04-30T03:38:34.176Z,3.16
2023-04-30T03:39:35.583Z,3.08
2023-04-30T03:40:37.128Z,3.27
2023-04-30T03:41:38.571Z,3.30
2023-04-30T03:42:40.029Z,3.28
2023-04-30T03:43:41.506Z,3.23
2023-04-30T03:44:42.921Z,3.27
2023-04-30T03:45:44.390Z,3.24
2023-04-30T03:46:45.893Z,3.41
2023-04-30T03:47:47.512Z,3.27
2023-04-30T03:48:49.004Z,3.28
2023-04-30T03:49:55.330Z,3.24
2023-04-30T03:50:57.233Z,3.26
2023-04-30T03:51:59.022Z,3.34
2023-04-30T03:53:00.518Z,3.22
2023-04-30T03:54:01.948Z,3.15
2023-04-30T03:55:04.731Z,3.12
2023-04-30T03:56:06.868Z,3.09
2023-04-30T03:57:10.615Z,3.05
2023-04-30T03:58:12.136Z,3.01
2023-04-30T03:59:13.642Z,2.97
2023-04-30T04:00:15.498Z,2.94
2023-04-30T04:01:16.952Z,2.99
2023-04-30T04:02:18.524Z,2.91
2023-04-30T04:03:20.451Z,2.90
2023-04-30T04:04:22.197Z,3.01
2023-04-30T04:05:23.639Z,3.14
2023-04-30T04:06:25.147Z,3.24
2023-04-30T04:07:26.659Z,3.25
2023-04-30T04:08:28.069Z,3.38
2023-04-30T04:09:29.949Z,3.35
2023-04-30T04:10:32.151Z,3.43
2023-04-30T04:11:34.205Z,3.39
2023-04-30T04:12:35.614Z,3.47
2023-04-30T04:13:37.070Z,3.46
2023-04-30T04:14:38.480Z,3.46
2023-04-30T04:15:39.926Z,3.43
2023-04-30T04:16:41.443Z,3.42
2023-04-30T04:17:42.959Z,3.41
2023-04-30T04:18:44.522Z,3.36
2023-04-30T04:19:45.929Z,3.37
2023-04-30T04:20:47.325Z,3.30
2023-04-30T04:21:48.724Z,3.41
2023-04-30T04:22:50.384Z,3.41
2023-04-30T04:23:52.213Z,3.43
2023-04-30T04:24:54.524Z,3.55
2023-04-30T04:25:57.445Z,3.79
2023-04-30T04:26:59.460Z,3.75
2023-04-30T04:28:00.947Z,3.72
2023-04-30T04:29:04.492Z,3.73
2023-04-30T04:30:06.619Z,3.67
2023-04-30T04:31:08.451Z,3.68
2023-04-30T04:32:10.277Z,3.75
2023-04-30T04:33:11.738Z,3.70
2023-04-30T04:34:13.155Z,3.76
2023-04-30T04:35:15.711Z,3.79
2023-04-30T04:36:17.347Z,3.83
2023-04-30T04:37:18.746Z,3.97
2023-04-30T04:38:20.239Z,3.96
2023-04-30T04:39:21.717Z,3.96
2023-04-30T04:40:23.104Z,4.03
2023-04-30T04:41:25.306Z,4.08
2023-04-30T04:42:26.924Z,4.02
2023-04-30T04:43:28.450Z,4.06
2023-04-30T04:44:29.880Z,4.04
2023-04-30T04:45:31.877Z,4.02
2023-04-30T04:46:35.057Z,4.07
2023-04-30T04:47:37.646Z,4.07
2023-04-30T04:48:39.110Z,4.17
2023-04-30T04:49:40.771Z,4.14
2023-04-30T04:50:42.198Z,4.13
2023-04-30T04:51:43.602Z,4.26
2023-04-30T04:52:45.071Z,4.24
2023-04-30T04:53:46.716Z,4.32
2023-04-30T04:54:48.138Z,4.26
2023-04-30T04:55:49.534Z,4.22
2023-04-30T04:56:51.647Z,4.18
2023-04-30T04:57:53.023Z,4.28
2023-04-30T04:58:54.461Z,4.25
2023-04-30T04:59:56.021Z,4.31
2023-04-30T05:00:57.901Z,4.28
2023-04-30T05:01:59.349Z,4.29
2023-04-30T05:03:00.989Z,4.38
2023-04-30T05:04:02.690Z,4.47
2023-04-30T05:05:04.408Z,4.58
2023-04-30T05:06:06.301Z,4.69
2023-04-30T05:07:08.090Z,4.78
2023-04-30T05:08:09.490Z,4.90
2023-04-30T05:09:10.954Z,5.11
2023-04-30T05:10:12.525Z,5.38
2023-04-30T05:11:15.620Z,5.60
2023-04-30T05:12:17.424Z,5.92
2023-04-30T05:13:18.798Z,6.49
2023-04-30T05:14:21.057Z,6.47
2023-04-30T05:15:22.543Z,6.57
2023-04-30T05:16:24.033Z,6.51
2023-04-30T05:17:25.584Z,6.81
2023-04-30T05:18:27.121Z,6.95
2023-04-30T05:19:28.733Z,7.31
2023-04-30T05:20:30.177Z,7.13
2023-04-30T05:21:32.072Z,7.19
2023-04-30T05:22:33.619Z,7.18
2023-04-30T05:23:35.090Z,7.34
2023-04-30T05:24:36.565Z,7.57
2023-04-30T05:25:38.251Z,7.62
2023-04-30T05:26:39.708Z,7.80
2023-04-30T05:27:41.279Z,8.06
2023-04-30T05:28:42.787Z,7.75
2023-04-30T05:29:44.221Z,7.76
2023-04-30T05:30:45.663Z,7.35
2023-04-30T05:31:47.262Z,7.51
2023-04-30T05:32:51.944Z,7.58
2023-04-30T05:33:53.438Z,7.75
2023-04-30T05:34:55.054Z,7.87
2023-04-30T05:35:56.443Z,7.49
2023-04-30T05:36:58.102Z,7.42
2023-04-30T05:37:59.504Z,7.76
2023-04-30T05:39:01.114Z,7.65
2023-04-30T05:40:02.570Z,7.82
2023-04-30T05:41:04.207Z,7.87
2023-04-30T05:42:05.946Z,7.36
2023-04-30T05:43:07.350Z,7.28
2023-04-30T05:44:08.742Z,7.97
2023-04-30T05:45:17.091Z,8.05
2023-04-30T05:46:18.616Z,7.99
2023-04-30T05:47:20.057Z,8.43
2023-04-30T05:48:21.597Z,8.49
2023-04-30T05:49:23.061Z,8.80
2023-04-30T05:50:24.531Z,8.65
2023-04-30T05:51:26.055Z,8.49
2023-04-30T05:52:27.509Z,8.88
2023-04-30T05:53:28.922Z,8.99
2023-04-30T05:54:31.037Z,8.98
2023-04-30T05:55:32.546Z,9.37
2023-04-30T05:56:33.971Z,9.68
2023-04-30T05:57:35.610Z,9.66
2023-04-30T05:58:37.020Z,9.03
2023-04-30T05:59:38.434Z,8.90
2023-04-30T06:00:39.851Z,9.26
2023-04-30T06:01:41.778Z,9.49
2023-04-30T06:02:43.274Z,9.24
2023-04-30T06:03:44.783Z,9.36
2023-04-30T06:04:47.268Z,9.30
2023-04-30T06:05:48.816Z,8.88
2023-04-30T06:06:50.397Z,8.93
2023-04-30T06:07:51.906Z,8.73
2023-04-30T06:08:53.493Z,8.83
2023-04-30T06:09:56.465Z,8.88
2023-04-30T06:10:58.140Z,8.73
2023-04-30T06:11:59.968Z,9.26
2023-04-30T06:13:01.470Z,9.21
2023-04-30T06:14:03.830Z,9.43
2023-04-30T06:15:06.669Z,9.49
2023-04-30T06:16:08.508Z,9.83
2023-04-30T06:17:10.228Z,9.09
2023-04-30T06:18:14.149Z,9.38
2023-04-30T06:19:16.094Z,9.67
2023-04-30T06:20:17.520Z,9.52
2023-04-30T06:21:20.363Z,9.49
2023-04-30T06:22:21.792Z,9.34
2023-04-30T06:23:23.225Z,9.50
2023-04-30T06:24:27.496Z,9.54
2023-04-30T06:25:28.926Z,9.53
2023-04-30T06:26:30.760Z,9.59
2023-04-30T06:27:32.504Z,9.36
2023-04-30T06:28:34.060Z,9.21
2023-04-30T06:29:35.583Z,9.23
2023-04-30T06:30:37.148Z,9.11
2023-04-30T06:31:38.664Z,8.56
2023-04-30T06:32:40.131Z,8.80
2023-04-30T06:33:41.591Z,8.99
2023-04-30T06:34:42.998Z,9.52
2023-04-30T06:35:44.476Z,9.85
2023-04-30T06:36:45.896Z,10.01
2023-04-30T06:37:47.315Z,9.53
2023-04-30T06:38:48.829Z,9.73
2023-04-30T06:39:51.474Z,9.38
2023-04-30T06:40:52.996Z,9.61
2023-04-30T06:41:54.439Z,9.75
2023-04-30T06:42:55.868Z,10.08
2023-04-30T06:43:57.280Z,10.26
2023-04-30T06:44:58.672Z,9.82
2023-04-30T06:46:00.254Z,9.72
2023-04-30T06:47:02.596Z,9.14
2023-04-30T06:48:04.247Z,9.53
2023-04-30T06:49:05.770Z,9.39
2023-04-30T06:50:07.621Z,9.20
2023-04-30T06:51:10.694Z,9.38
2023-04-30T06:52:12.427Z,9.16
2023-04-30T06:53:15.036Z,9.15
2023-04-30T06:54:16.519Z,9.33
2023-04-30T06:55:18.103Z,9.29
2023-04-30T06:56:22.000Z,9.54
2023-04-30T06:57:24.576Z,9.76
2023-04-30T06:58:26.088Z,9.37
2023-04-30T06:59:28.373Z,9.59
2023-04-30T07:00:29.779Z,9.45
2023-04-30T07:01:31.230Z,9.47
2023-04-30T07:02:33.009Z,9.26
2023-04-30T07:03:35.633Z,9.25
2023-04-30T07:04:37.141Z,9.30
2023-04-30T07:05:38.639Z,9.48
2023-04-30T07:06:40.156Z,9.52
2023-04-30T07:07:41.610Z,9.53
2023-04-30T07:08:43.905Z,9.50
2023-04-30T07:09:45.394Z,9.20
2023-04-30T07:10:46.822Z,8.89
2023-04-30T07:11:48.221Z,9.26
2023-04-30T07:12:49.657Z,9.23
2023-04-30T07:13:51.431Z,9.42
2023-04-30T07:14:53.356Z,9.50
2023-04-30T07:15:54.936Z,9.06
2023-04-30T07:16:56.393Z,9.02
2023-04-30T07:17:57.855Z,8.76
2023-04-30T07:18:59.917Z,8.85
2023-04-30T07:20:01.237Z,9.20
2023-04-30T07:21:02.675Z,9.16
2023-04-30T07:22:04.134Z,9.01
2023-04-30T07:23:05.586Z,9.00
2023-04-30T07:24:07.026Z,9.22
2023-04-30T07:25:09.054Z,9.29
2023-04-30T07:26:10.379Z,9.12
2023-04-30T07:27:11.802Z,9.42
2023-04-30T07:28:13.308Z,8.91
2023-04-30T07:29:14.956Z,8.74
2023-04-30T07:30:16.695Z,8.69
2023-04-30T07:31:19.196Z,8.33
2023-04-30T07:32:21.527Z,8.33
2023-04-30T07:33:23.028Z,8.45
2023-04-30T07:34:25.175Z,8.68
2023-04-30T07:35:26.654Z,8.80
2023-04-30T07:36:28.166Z,8.84
2023-04-30T07:37:29.763Z,8.79
2023-04-30T07:38:31.348Z,8.96
2023-04-30T07:39:32.816Z,8.91
2023-04-30T07:40:36.007Z,8.89
2023-04-30T07:41:38.154Z,9.18
2023-04-30T07:42:42.136Z,8.76
2023-04-30T07:43:43.534Z,9.08
2023-04-30T07:44:45.020Z,9.35
2023-04-30T07:45:46.507Z,9.45
2023-04-30T07:46:48.009Z,9.55
2023-04-30T07:47:49.467Z,9.65
2023-04-30T07:48:50.943Z,9.66
2023-04-30T07:49:53.042Z,9.44
2023-04-30T07:50:55.194Z,9.48
2023-04-30T07:51:56.698Z,9.34
2023-04-30T07:52:58.180Z,9.44
2023-04-30T07:54:00.431Z,9.25
2023-04-30T07:55:01.966Z,9.15
2023-04-30T07:56:03.679Z,9.21
2023-04-30T07:57:06.417Z,9.09
2023-04-30T07:58:07.847Z,9.05
2023-04-30T07:59:09.226Z,9.17
2023-04-30T08:00:11.224Z,9.31
2023-04-30T08:01:12.551Z,9.27
2023-04-30T08:02:14.074Z,9.52
2023-04-30T08:03:15.786Z,9.53
2023-04-30T08:04:17.324Z,9.49
2023-04-30T08:05:18.818Z,9.31
2023-04-30T08:06:20.605Z,9.15
2023-04-30T08:07:22.372Z,9.23
2023-04-30T08:08:23.787Z,9.52
2023-04-30T08:09:25.293Z,9.64
2023-04-30T08:10:26.833Z,9.34
2023-04-30T08:11:28.265Z,9.62
2023-04-30T08:12:30.254Z,9.87
2023-04-30T08:13:31.580Z,9.86
2023-04-30T08:14:33.207Z,9.92
2023-04-30T08:15:34.689Z,9.88
2023-04-30T08:16:36.173Z,9.96
2023-04-30T08:17:37.818Z,9.80
2023-04-30T08:18:40.597Z,9.82
2023-04-30T08:19:42.041Z,9.68
2023-04-30T08:20:43.553Z,10.04
2023-04-30T08:21:45.035Z,9.97
2023-04-30T08:22:46.837Z,9.70
2023-04-30T08:23:48.448Z,9.81
2023-04-30T08:24:50.264Z,10.03
2023-04-30T08:25:52.381Z,10.01
2023-04-30T08:26:54.865Z,9.90
2023-04-30T08:27:56.370Z,9.88
2023-04-30T08:28:57.754Z,10.14
2023-04-30T08:29:59.242Z,10.24
2023-04-30T08:31:01.099Z,10.26
2023-04-30T08:32:04.028Z,10.53
2023-04-30T08:33:06.840Z,10.57
2023-04-30T08:34:08.292Z,10.41
2023-04-30T08:35:10.063Z,10.41
2023-04-30T08:36:11.482Z,10.60
2023-04-30T08:37:12.922Z,10.56
2023-04-30T08:38:14.462Z,10.40
2023-04-30T08:39:15.957Z,10.13
2023-04-30T08:40:17.672Z,10.32
2023-04-30T08:41:23.782Z,10.29
2023-04-30T08:42:29.902Z,10.26
2023-04-30T08:43:31.589Z,10.53
2023-04-30T08:44:35.244Z,10.22
2023-04-30T08:45:41.346Z,10.00
2023-04-30T08:46:44.621Z,9.93
2023-04-30T08:47:46.549Z,10.03
2023-04-30T08:48:48.681Z,9.99
2023-04-30T08:49:50.190Z,10.12
2023-04-30T08:50:52.414Z,10.19
2023-04-30T08:51:53.951Z,10.07
2023-04-30T08:52:55.651Z,10.00
2023-04-30T08:53:57.781Z,10.12
2023-04-30T08:55:01.638Z,9.97
2023-04-30T08:56:03.757Z,10.08
2023-04-30T08:57:05.768Z,10.07
2023-04-30T08:58:09.247Z,10.16
2023-04-30T08:59:11.982Z,10.14
2023-04-30T09:00:13.904Z,10.33
2023-04-30T09:01:15.435Z,10.53
2023-04-30T09:02:16.882Z,10.31
2023-04-30T09:03:18.536Z,10.19
2023-04-30T09:04:20.177Z,10.19
2023-04-30T09:05:21.674Z,10.51
2023-04-30T09:06:23.315Z,10.53
2023-04-30T09:07:27.938Z,10.28
2023-04-30T09:08:47.329Z,10.36
2023-04-30T09:09:53.015Z,10.54
2023-04-30T09:10:54.661Z,10.41
2023-04-30T09:12:18.829Z,10.63
2023-04-30T09:13:20.941Z,10.51
2023-04-30T09:14:28.098Z,10.47
2023-04-30T09:15:31.572Z,10.66
2023-04-30T09:16:47.889Z,10.44
2023-04-30T09:17:49.392Z,10.65
2023-04-30T09:18:51.532Z,10.87
2023-04-30T09:19:53.593Z,10.44
2023-04-30T09:21:01.937Z,10.57
2023-04-30T09:22:23.668Z,10.63
2023-04-30T09:23:25.546Z,10.63
2023-04-30T09:24:26.994Z,10.49
2023-04-30T09:25:39.633Z,10.58
2023-04-30T09:26:41.027Z,10.75
2023-04-30T09:27:44.234Z,10.56
2023-04-30T09:28:59.233Z,10.47
2023-04-30T09:30:01.114Z,10.61
2023-04-30T09:31:03.186Z,10.91
2023-04-30T09:32:10.514Z,10.56
2023-04-30T09:33:12.602Z,10.89
2023-04-30T09:34:15.107Z,11.07
2023-04-30T09:35:29.885Z,11.25
2023-04-30T09:36:32.538Z,11.26
2023-04-30T09:37:38.285Z,11.14
2023-04-30T09:38:39.843Z,11.30
2023-04-30T09:39:55.162Z,11.43
2023-04-30T09:40:59.082Z,11.39
2023-04-30T09:42:10.984Z,11.09
2023-04-30T09:43:12.969Z,10.93
2023-04-30T09:44:34.528Z,11.09
2023-04-30T09:45:54.137Z,11.11
2023-04-30T09:46:57.651Z,11.24
2023-04-30T09:48:09.200Z,11.11
2023-04-30T09:49:19.187Z,11.18
2023-04-30T09:50:20.893Z,11.13
2023-04-30T09:51:22.345Z,11.18
2023-04-30T09:52:23.798Z,11.52
2023-04-30T09:53:27.967Z,11.35
2023-04-30T09:54:31.227Z,11.45
2023-04-30T09:55:33.711Z,11.53
2023-04-30T09:56:39.366Z,11.42
2023-04-30T09:57:41.024Z,11.77
2023-04-30T09:58:46.408Z,12.10
2023-04-30T09:59:49.031Z,11.73
2023-04-30T10:00:52.884Z,11.84
2023-04-30T10:01:55.325Z,11.69
2023-04-30T10:02:58.236Z,11.74
2023-04-30T10:03:59.798Z,11.98
2023-04-30T10:05:01.601Z,12.15
2023-04-30T10:06:03.716Z,11.90
2023-04-30T10:07:26.413Z,11.55
2023-04-30T10:08:34.083Z,11.76
2023-04-30T10:09:50.110Z,11.88
2023-04-30T10:11:17.250Z,12.40
2023-04-30T10:12:32.425Z,12.41
2023-04-30T10:13:55.528Z,12.49
2023-04-30T10:15:09.757Z,12.49
2023-04-30T10:16:28.158Z,12.33
2023-04-30T10:17:33.835Z,11.97
2023-04-30T10:18:39.687Z,12.18
2023-04-30T10:19:47.845Z,12.18
2023-04-30T10:20:53.781Z,12.66
2023-04-30T10:21:55.474Z,13.03
2023-04-30T10:22:57.196Z,13.16
2023-04-30T10:23:59.493Z,13.25
2023-04-30T10:25:01.981Z,12.64
2023-04-30T10:26:04.034Z,13.16
2023-04-30T10:27:05.762Z,12.99
2023-04-30T10:28:08.795Z,12.97
2023-04-30T10:29:10.446Z,13.31
2023-04-30T10:30:12.480Z,13.01
2023-04-30T10:31:14.896Z,12.95
2023-04-30T10:32:16.798Z,12.45
2023-04-30T10:33:36.639Z,12.34
2023-04-30T10:35:12.429Z,13.20
2023-04-30T10:36:18.065Z,13.18
2023-04-30T10:37:34.462Z,12.00
2023-04-30T10:38:37.780Z,12.39
2023-04-30T10:39:39.475Z,12.91
2023-04-30T10:40:41.036Z,13.13
2023-04-30T10:41:46.937Z,13.30
2023-04-30T10:42:49.966Z,13.52
2023-04-30T10:43:51.484Z,13.47
2023-04-30T10:44:53.603Z,13.53
2023-04-30T10:45:58.218Z,13.48
2023-04-30T10:47:01.808Z,13.52
2023-04-30T10:48:04.439Z,13.19
2023-04-30T10:49:06.082Z,13.19
2023-04-30T10:50:11.218Z,13.49
2023-04-30T10:51:12.648Z,14.09
2023-04-30T10:52:14.195Z,14.05
2023-04-30T10:53:19.696Z,14.44
2023-04-30T10:54:29.360Z,14.48
2023-04-30T10:55:31.477Z,13.75
2023-04-30T10:56:33.451Z,14.17
2023-04-30T10:57:48.235Z,14.11
2023-04-30T10:58:50.660Z,14.27
2023-04-30T10:59:54.576Z,14.50
2023-04-30T11:01:05.085Z,14.24
2023-04-30T11:02:10.693Z,14.53
2023-04-30T11:03:12.299Z,14.47
2023-04-30T11:04:13.765Z,13.90
2023-04-30T11:05:18.049Z,14.08
2023-04-30T11:06:20.699Z,14.65
2023-04-30T11:07:25.911Z,14.50
2023-04-30T11:08:38.344Z,13.84
2023-04-30T11:09:45.066Z,14.18
2023-04-30T11:11:01.604Z,14.53
2023-04-30T11:12:28.154Z,14.71
2023-04-30T11:13:29.726Z,14.46
2023-04-30T11:14:34.580Z,14.78
2023-04-30T11:15:45.523Z,14.73
2023-04-30T11:16:51.162Z,14.80
2023-04-30T11:17:57.382Z,14.77
2023-04-30T11:19:13.299Z,15.02
2023-04-30T11:20:20.145Z,14.85
2023-04-30T11:21:21.690Z,14.68
2023-04-30T11:22:24.489Z,14.68
2023-04-30T11:23:38.432Z,14.66
2023-04-30T11:25:00.801Z,14.13
2023-04-30T11:26:03.532Z,14.37
2023-04-30T11:27:06.055Z,14.98
2023-04-30T11:28:08.769Z,15.07
2023-04-30T11:29:11.198Z,15.51
2023-04-30T11:30:15.470Z,15.47
2023-04-30T11:31:17.260Z,15.73
2023-04-30T11:32:20.141Z,15.66
2023-04-30T11:33:23.588Z,15.70
2023-04-30T11:34:25.271Z,15.17
2023-04-30T11:35:28.714Z,14.67
2023-04-30T11:36:31.584Z,13.95
2023-04-30T11:37:35.854Z,14.61
2023-04-30T11:38:37.687Z,14.15
2023-04-30T11:39:39.505Z,14.31
2023-04-30T11:40:41.180Z,14.81
2023-04-30T11:41:43.612Z,15.13
2023-04-30T11:42:46.584Z,14.44
2023-04-30T11:43:48.207Z,14.33
2023-04-30T11:44:49.625Z,14.26
2023-04-30T11:46:11.210Z,14.54
2023-04-30T11:47:14.649Z,14.70
2023-04-30T11:48:16.842Z,14.48
2023-04-30T11:49:20.360Z,14.87
2023-04-30T11:50:28.944Z,13.98
2023-04-30T11:51:30.631Z,14.13
2023-04-30T11:52:32.060Z,14.25
2023-04-30T11:53:33.535Z,14.17
2023-04-30T11:54:38.945Z,14.51
2023-04-30T11:55:41.639Z,14.30
2023-04-30T11:56:50.277Z,14.30
2023-04-30T11:57:56.571Z,14.46
2023-04-30T11:58:58.074Z,15.00
2023-04-30T12:00:10.009Z,14.89
2023-04-30T12:01:11.654Z,14.21
2023-04-30T12:02:16.935Z,14.58
2023-04-30T12:03:18.646Z,15.03
2023-04-30T12:04:20.322Z,14.55
2023-04-30T12:05:26.823Z,15.11
2023-04-30T12:06:29.146Z,14.50
2023-04-30T12:07:31.292Z,14.55
2023-04-30T12:08:32.739Z,14.81
2023-04-30T12:09:51.959Z,15.22
2023-04-30T12:10:53.440Z,15.08
2023-04-30T12:11:54.833Z,15.13
2023-04-30T12:12:56.454Z,15.16
2023-04-30T12:14:03.287Z,15.43
2023-04-30T12:15:18.586Z,15.73
2023-04-30T12:16:20.116Z,15.71
2023-04-30T12:17:32.634Z,15.13
2023-04-30T12:18:34.146Z,15.18
2023-04-30T12:19:35.569Z,15.32
2023-04-30T12:20:38.149Z,15.66
2023-04-30T12:21:41.068Z,15.85
2023-04-30T12:22:44.064Z,16.19
2023-04-30T12:23:45.534Z,15.35
2023-04-30T12:24:47.116Z,15.57
2023-04-30T12:25:48.643Z,16.07
2023-04-30T12:26:53.728Z,16.11
2023-04-30T12:27:55.213Z,16.04
2023-04-30T12:28:56.692Z,16.35
2023-04-30T12:30:04.281Z,15.89
2023-04-30T12:31:06.016Z,15.68
2023-04-30T12:32:07.698Z,15.42
2023-04-30T12:33:10.681Z,14.85
2023-04-30T12:34:13.726Z,14.74
2023-04-30T12:35:17.082Z,15.29
2023-04-30T12:36:18.621Z,15.56
2023-04-30T12:37:20.983Z,15.09
2023-04-30T12:38:23.327Z,15.25
2023-04-30T12:39:24.795Z,15.06
2023-04-30T12:40:27.429Z,15.10
2023-04-30T12:41:29.985Z,15.57
2023-04-30T12:42:35.823Z,15.61
2023-04-30T12:43:37.350Z,15.75
2023-04-30T12:44:45.217Z,15.65
2023-04-30T12:45:54.034Z,15.93
2023-04-30T12:46:57.704Z,15.73
2023-04-30T12:47:59.233Z,15.80
2023-04-30T12:49:01.306Z,15.90
2023-04-30T12:50:02.982Z,16.16
2023-04-30T12:51:06.636Z,16.44
2023-04-30T12:52:13.720Z,16.12
2023-04-30T12:53:15.437Z,16.03
2023-04-30T12:54:26.047Z,15.90
2023-04-30T12:55:29.508Z,15.77
2023-04-30T12:56:31.258Z,15.79
2023-04-30T12:57:32.712Z,16.05
2023-04-30T12:58:34.169Z,16.19
2023-04-30T12:59:39.453Z,16.30
2023-04-30T13:00:49.412Z,16.50
2023-04-30T13:01:50.937Z,16.07
2023-04-30T13:02:53.001Z,16.23
2023-04-30T13:03:54.828Z,16.57
2023-04-30T13:04:56.847Z,16.73
2023-04-30T13:05:59.088Z,16.44
2023-04-30T13:07:00.575Z,16.64
2023-04-30T13:08:06.381Z,16.33
2023-04-30T13:09:07.821Z,16.39
2023-04-30T13:10:09.613Z,16.61
2023-04-30T13:11:11.627Z,16.46
2023-04-30T13:12:13.384Z,16.17
2023-04-30T13:13:16.508Z,16.41
2023-04-30T13:14:18.058Z,16.13
2023-04-30T13:15:19.708Z,16.13
2023-04-30T13:16:21.185Z,15.91
2023-04-30T13:17:23.348Z,15.69
2023-04-30T13:18:24.869Z,15.75
2023-04-30T13:19:26.872Z,16.02
2023-04-30T13:20:28.390Z,16.19
2023-04-30T13:21:29.933Z,16.12
2023-04-30T13:22:31.373Z,16.48
2023-04-30T13:23:41.198Z,16.26
2023-04-30T13:24:50.421Z,16.56
2023-04-30T13:25:51.985Z,16.62
2023-04-30T13:26:53.725Z,16.50
2023-04-30T13:27:55.305Z,16.63
2023-04-30T13:28:56.746Z,16.70
2023-04-30T13:29:58.393Z,16.88
2023-04-30T13:30:59.929Z,16.92
2023-04-30T13:32:01.372Z,16.99
2023-04-30T13:33:03.089Z,16.35
2023-04-30T13:34:04.641Z,16.25
2023-04-30T13:35:08.310Z,16.58
2023-04-30T13:36:09.825Z,16.64
2023-04-30T13:37:11.247Z,16.55
2023-04-30T13:38:12.721Z,16.40
2023-04-30T13:39:14.194Z,16.40
2023-04-30T13:40:16.001Z,16.44
2023-04-30T13:41:17.499Z,16.64
2023-04-30T13:42:18.976Z,16.35
2023-04-30T13:43:20.454Z,16.33
2023-04-30T13:44:21.948Z,16.14
2023-04-30T13:45:23.448Z,16.23
2023-04-30T13:46:24.945Z,16.45
2023-04-30T13:47:26.447Z,16.47
2023-04-30T13:48:28.023Z,16.30
2023-04-30T13:49:29.421Z,16.06
2023-04-30T13:50:30.871Z,16.11
2023-04-30T13:51:32.370Z,16.29
2023-04-30T13:52:33.915Z,16.38
2023-04-30T13:53:37.016Z,16.39
2023-04-30T13:54:38.990Z,16.45
2023-04-30T13:55:40.664Z,16.75